Time;durP1;ratioP1;P1;durP2;ratioP2;P2;SDS_P1;SDS_P2;PMS_P1;PMS_P2;Temp;Humidity;BMP_temperature;BMP_pressure;BME280_temperature;BME280_humidity;BME280_pressure;Samples;Min_cycle;Max_cycle;Signal;HPM_P1;HPM_P2
2023/05/20 00:01:26;;;;;;;6.00;5.40;;;14.10;98.70;;;;;;10524217;28;20291;-84
2023/05/20 00:06:31;;;;;;;5.70;5.20;;;14.10;98.80;;;;;;10507028;28;20215;-85
2023/05/20 00:11:33;;;;;;;5.57;5.07;;;14.10;98.40;;;;;;10522297;28;20199;-85
2023/05/20 00:16:35;;;;;;;5.90;5.30;;;14.20;98.50;;;;;;10535642;28;20228;-85
2023/05/20 00:21:38;;;;;;;5.70;5.20;;;14.20;98.50;;;;;;10507559;28;20205;-85
2023/05/20 00:26:40;;;;;;;6.50;5.40;;;14.20;98.30;;;;;;10527810;28;20905;-85
2023/05/20 00:31:42;;;;;;;5.27;4.80;;;14.20;98.70;;;;;;10506701;28;20195;-85
2023/05/20 00:36:46;;;;;;;6.90;6.20;;;14.10;99.00;;;;;;10505076;28;20862;-85
2023/05/20 00:41:48;;;;;;;5.50;4.90;;;14.20;98.60;;;;;;10505567;28;20240;-85
2023/05/20 00:46:50;;;;;;;6.67;5.97;;;14.20;98.90;;;;;;10529637;28;20239;-86
2023/05/20 00:51:55;;;;;;;5.40;5.00;;;14.20;99.20;;;;;;10499943;28;20722;-85
2023/05/20 00:56:58;;;;;;;6.57;5.97;;;14.20;99.00;;;;;;10504924;28;20293;-85
2023/05/20 01:02:00;;;;;;;5.70;5.30;;;14.30;98.60;;;;;;10517140;28;20703;-85
2023/05/20 01:07:05;;;;;;;5.60;5.10;;;14.30;98.70;;;;;;10518396;28;20570;-85
2023/05/20 01:12:12;;;;;;;5.40;5.03;;;14.30;99.10;;;;;;10520792;28;20669;-85
2023/05/20 01:17:19;;;;;;;6.10;5.67;;;14.30;99.10;;;;;;10504233;28;20226;-85
2023/05/20 01:22:25;;;;;;;5.73;5.33;;;14.30;99.30;;;;;;10503302;28;20348;-85
2023/05/20 01:27:29;;;;;;;6.17;5.57;;;14.40;99.30;;;;;;10502772;28;20220;-85
2023/05/20 01:32:35;;;;;;;6.00;5.50;;;14.40;99.30;;;;;;10521674;28;20286;-85
2023/05/20 01:37:40;;;;;;;6.00;5.50;;;14.40;99.50;;;;;;10518260;28;20219;-83
2023/05/20 01:42:44;;;;;;;6.60;6.10;;;14.50;99.30;;;;;;10509590;28;20204;-82
2023/05/20 01:47:46;;;;;;;6.50;5.97;;;14.50;99.80;;;;;;10516057;28;20234;-84
2023/05/20 01:52:50;;;;;;;5.90;5.50;;;14.50;99.70;;;;;;10504767;28;20204;-84
2023/05/20 01:57:52;;;;;;;6.30;5.87;;;14.50;99.90;;;;;;10518434;28;20277;-84
2023/05/20 02:02:55;;;;;;;7.47;6.40;;;14.50;99.90;;;;;;10535332;28;20748;-84
2023/05/20 02:07:59;;;;;;;6.53;5.97;;;14.50;99.90;;;;;;10498487;28;20258;-85
2023/05/20 02:13:01;;;;;;;6.37;5.87;;;14.50;99.70;;;;;;10501832;28;20208;-84
2023/05/20 02:18:04;;;;;;;5.83;4.97;;;14.40;99.90;;;;;;10494799;28;20227;-84
2023/05/20 02:23:07;;;;;;;5.80;5.30;;;14.40;99.90;;;;;;10518122;28;20227;-84
2023/05/20 02:28:10;;;;;;;6.07;5.60;;;14.30;99.90;;;;;;10506043;28;20219;-85
2023/05/20 02:33:12;;;;;;;5.83;5.33;;;14.30;99.90;;;;;;10497791;28;20200;-85
2023/05/20 02:38:16;;;;;;;5.97;5.47;;;14.20;99.90;;;;;;10515074;28;20228;-85
2023/05/20 02:43:18;;;;;;;6.13;5.63;;;14.20;99.90;;;;;;10521896;28;20204;-84
2023/05/20 02:48:20;;;;;;;7.10;5.00;;;14.10;99.90;;;;;;10532022;28;20380;-85
2023/05/20 02:53:24;;;;;;;6.20;5.70;;;14.00;99.90;;;;;;10513543;28;20205;-85
2023/05/20 02:58:28;;;;;;;5.93;5.40;;;14.00;99.90;;;;;;10516380;28;20235;-84
2023/05/20 03:03:30;;;;;;;7.00;6.30;;;13.90;99.90;;;;;;10517984;28;20262;-85
2023/05/20 03:08:35;;;;;;;6.43;5.90;;;13.90;99.90;;;;;;10514811;28;20315;-85
2023/05/20 03:13:37;;;;;;;5.37;4.97;;;13.90;99.90;;;;;;10501231;28;20204;-85
2023/05/20 03:18:39;;;;;;;6.10;5.70;;;13.90;99.90;;;;;;10516606;28;20233;-83
2023/05/20 03:23:43;;;;;;;6.80;6.20;;;13.80;99.90;;;;;;10510355;28;20212;-82
2023/05/20 03:28:45;;;;;;;6.40;5.87;;;13.80;99.90;;;;;;10525435;28;20209;-83
2023/05/20 03:33:47;;;;;;;5.40;5.10;;;13.70;99.90;;;;;;10531490;28;20238;-82
2023/05/20 03:38:51;;;;;;;6.10;5.70;;;13.70;99.90;;;;;;10506427;28;20263;-83
2023/05/20 03:43:53;;;;;;;5.97;5.57;;;13.60;99.90;;;;;;10541572;28;20209;-83
2023/05/20 03:48:55;;;;;;;6.43;5.83;;;13.60;99.90;;;;;;10551381;22;20232;-87
2023/05/20 03:53:59;;;;;;;6.13;5.63;;;13.50;99.90;;;;;;10560717;28;20291;-86
2023/05/20 03:59:02;;;;;;;7.50;6.80;;;13.60;99.90;;;;;;10521584;28;20273;-87
2023/05/20 04:04:05;;;;;;;6.97;6.27;;;13.60;99.90;;;;;;10519692;28;20211;-86
2023/05/20 04:09:08;;;;;;;6.23;5.83;;;13.60;99.90;;;;;;10536333;28;20232;-86
2023/05/20 04:14:10;;;;;;;7.33;5.87;;;13.70;99.90;;;;;;10541708;28;20200;-87
2023/05/20 04:19:14;;;;;;;6.80;5.43;;;13.80;99.90;;;;;;10520620;28;20259;-86
2023/05/20 04:24:18;;;;;;;5.93;5.50;;;13.80;99.90;;;;;;10533238;28;20652;-87
2023/05/20 04:29:21;;;;;;;6.77;6.17;;;13.90;99.90;;;;;;10515667;28;20224;-87
2023/05/20 04:34:25;;;;;;;7.33;6.63;;;13.90;99.90;;;;;;10541948;28;20200;-86
2023/05/20 04:39:29;;;;;;;7.23;6.50;;;14.00;99.90;;;;;;10534303;28;20212;-87
2023/05/20 04:44:32;;;;;;;6.20;5.80;;;14.00;99.90;;;;;;10533207;28;20206;-85
2023/05/20 04:49:35;;;;;;;5.73;5.33;;;14.10;99.90;;;;;;10525898;28;20261;-85
2023/05/20 04:54:39;;;;;;;6.10;5.60;;;14.10;99.90;;;;;;10545665;28;21374;-84
2023/05/20 04:59:44;;;;;;;6.33;5.83;;;14.20;99.90;;;;;;10520676;28;20204;-84
2023/05/20 05:04:47;;;;;;;6.47;5.87;;;14.30;99.90;;;;;;10511499;28;20220;-87
2023/05/20 05:09:51;;;;;;;6.40;5.90;;;14.30;99.90;;;;;;10534204;28;20204;-84
2023/05/20 05:14:53;;;;;;;6.43;5.83;;;14.40;99.90;;;;;;10533720;28;20215;-85
2023/05/20 05:19:56;;;;;;;6.70;6.00;;;14.50;99.90;;;;;;10533101;28;20200;-83
2023/05/20 05:24:59;;;;;;;7.50;6.80;;;14.70;99.90;;;;;;10528642;28;20248;-84
2023/05/20 05:30:02;;;;;;;6.80;6.30;;;14.90;99.90;;;;;;10555274;28;20557;-84
2023/05/20 05:35:05;;;;;;;14.90;6.80;;;15.00;99.90;;;;;;10536154;28;20247;-84
2023/05/20 05:40:09;;;;;;;7.80;7.13;;;15.20;99.90;;;;;;10539762;28;20734;-84
2023/05/20 05:45:12;;;;;;;6.63;6.10;;;15.30;99.90;;;;;;10556491;28;20216;-83
2023/05/20 05:50:14;;;;;;;7.23;6.50;;;15.50;99.90;;;;;;10551535;28;20195;-84
2023/05/20 05:55:18;;;;;;;7.20;6.60;;;15.70;99.90;;;;;;10545820;28;20240;-85
2023/05/20 06:00:20;;;;;;;6.73;6.23;;;15.90;99.90;;;;;;10529179;28;20200;-84
2023/05/20 06:05:22;;;;;;;6.67;6.00;;;16.00;99.90;;;;;;10527058;28;20274;-84
2023/05/20 06:10:30;;;;;;;8.00;6.73;;;16.20;99.90;;;;;;10519879;28;20204;-85
2023/05/20 06:15:32;;;;;;;6.67;6.07;;;16.30;99.90;;;;;;10523277;28;20216;-85
2023/05/20 06:20:34;;;;;;;6.47;6.00;;;16.40;99.90;;;;;;10535796;28;20240;-85
2023/05/20 06:25:38;;;;;;;6.80;6.30;;;16.60;99.90;;;;;;10535917;28;20215;-85
2023/05/20 06:30:41;;;;;;;7.03;6.43;;;16.70;99.90;;;;;;10533511;28;21056;-85
2023/05/20 06:35:43;;;;;;;7.30;6.67;;;16.90;99.90;;;;;;10535108;28;20236;-83
2023/05/20 06:40:48;;;;;;;6.40;5.90;;;17.10;99.90;;;;;;10551392;28;20671;-82
2023/05/20 06:45:50;;;;;;;5.60;5.10;;;17.30;99.90;;;;;;10509214;28;20231;-82
2023/05/20 06:51:04;;;;;;;6.50;6.00;;;17.40;99.90;;;;;;10531501;28;20235;-83
2023/05/20 06:56:08;;;;;;;7.37;6.07;;;17.60;99.90;;;;;;10547551;28;20224;-83
2023/05/20 07:01:10;;;;;;;6.90;6.00;;;17.70;99.00;;;;;;10514656;28;20200;-84
2023/05/20 07:06:12;;;;;;;6.87;5.80;;;17.90;99.50;;;;;;10523647;28;20594;-83
2023/05/20 07:11:16;;;;;;;6.43;5.90;;;18.00;99.00;;;;;;10562020;28;20200;-83
2023/05/20 07:16:18;;;;;;;6.90;6.30;;;18.10;99.40;;;;;;10527697;28;20220;-82
2023/05/20 07:21:26;;;;;;;6.67;6.10;;;18.30;98.40;;;;;;10541662;28;20295;-82
2023/05/20 07:26:39;;;;;;;6.40;5.90;;;18.40;98.40;;;;;;10579174;28;20223;-81
2023/05/20 07:31:42;;;;;;;7.40;6.70;;;18.50;98.70;;;;;;10554278;28;20235;-82
2023/05/20 07:36:44;;;;;;;6.40;5.90;;;18.60;97.60;;;;;;10526946;28;20228;-82
2023/05/20 07:41:48;;;;;;;6.47;5.90;;;18.60;98.50;;;;;;10567268;28;20188;-84
2023/05/20 07:46:50;;;;;;;7.90;6.83;;;18.70;98.00;;;;;;10570442;28;20694;-82
2023/05/20 07:51:55;;;;;;;6.13;5.73;;;18.60;97.50;;;;;;10534454;28;20204;-82
2023/05/20 07:56:59;;;;;;;6.10;5.50;;;18.70;98.60;;;;;;10543397;28;20267;-82
2023/05/20 08:02:01;;;;;;;6.97;6.47;;;18.80;97.50;;;;;;10538903;28;20200;-83
2023/05/20 08:07:04;;;;;;;6.10;5.67;;;19.00;98.30;;;;;;10541442;28;20216;-82
2023/05/20 08:12:18;;;;;;;7.30;6.60;;;19.20;97.60;;;;;;10542553;28;20268;-82
2023/05/20 08:17:20;;;;;;;8.00;7.40;;;19.30;97.60;;;;;;10561236;28;20224;-82
2023/05/20 08:22:23;;;;;;;6.33;5.83;;;19.30;97.90;;;;;;10531455;28;21174;-82
2023/05/20 08:27:26;;;;;;;6.90;6.30;;;19.30;97.80;;;;;;10558804;28;20218;-82
2023/05/20 08:32:29;;;;;;;6.83;6.13;;;19.30;96.30;;;;;;10544642;28;20242;-82
2023/05/20 08:37:31;;;;;;;7.03;6.53;;;19.20;98.10;;;;;;10525348;28;20237;-84
2023/05/20 08:42:35;;;;;;;7.33;6.73;;;19.20;97.50;;;;;;10528960;28;20219;-84
2023/05/20 08:47:41;;;;;;;5.80;5.40;;;19.20;98.00;;;;;;10533883;28;20599;-83
2023/05/20 08:52:45;;;;;;;7.83;7.13;;;19.40;99.40;;;;;;10535909;28;20208;-82
2023/05/20 08:57:49;;;;;;;6.83;6.43;;;19.90;99.20;;;;;;10536981;28;20229;-82
2023/05/20 09:02:52;;;;;;;6.07;5.57;;;20.30;97.30;;;;;;10537577;28;20729;-82
2023/05/20 09:08:05;;;;;;;6.13;5.63;;;20.50;96.60;;;;;;10555530;28;20308;-83
2023/05/20 09:13:11;;;;;;;7.00;6.50;;;21.00;95.40;;;;;;10554728;28;20255;-83
2023/05/20 09:18:13;;;;;;;6.00;5.60;;;21.40;95.60;;;;;;10553381;28;20308;-82
2023/05/20 09:23:15;;;;;;;6.00;5.40;;;21.50;95.00;;;;;;10536620;28;20196;-82
2023/05/20 09:28:19;;;;;;;6.80;6.30;;;21.50;95.50;;;;;;10565132;28;20260;-83
2023/05/20 09:33:28;;;;;;;7.30;5.50;;;21.40;95.10;;;;;;10549348;28;20277;-83
2023/05/20 09:38:36;;;;;;;6.33;5.83;;;21.60;95.40;;;;;;10538951;28;20231;-82
2023/05/20 09:43:40;;;;;;;6.87;6.17;;;21.50;95.40;;;;;;10556266;28;20209;-83
2023/05/20 09:48:44;;;;;;;8.80;8.10;;;21.80;94.90;;;;;;10591024;22;20231;-79
2023/05/20 09:53:46;;;;;;;7.50;6.53;;;22.10;94.50;;;;;;10554819;28;21086;-78
2023/05/20 09:58:51;;;;;;;6.70;6.20;;;22.30;95.20;;;;;;10568483;28;20231;-81
2023/05/20 10:03:53;;;;;;;5.73;5.30;;;22.50;93.50;;;;;;10540805;28;20207;-77
2023/05/20 10:09:12;;;;;;;5.87;5.20;;;22.60;94.60;;;;;;10559183;28;20636;-77
2023/05/20 10:14:28;;;;;;;6.10;5.70;;;23.60;94.40;;;;;;10563103;28;20204;-78
2023/05/20 10:19:33;;;;;;;5.73;5.33;;;25.00;91.40;;;;;;10544169;28;20227;-78
2023/05/20 10:24:36;;;;;;;7.57;6.33;;;24.70;91.20;;;;;;10559987;28;20204;-79
2023/05/20 10:29:45;;;;;;;5.87;5.47;;;24.00;92.40;;;;;;10541071;28;20607;-78
2023/05/20 10:34:50;;;;;;;6.87;6.30;;;23.60;91.60;;;;;;10559073;28;20253;-78
2023/05/20 10:39:52;;;;;;;5.67;5.27;;;23.30;91.10;;;;;;10562644;28;20308;-79
2023/05/20 10:44:55;;;;;;;11.10;9.13;;;22.90;92.40;;;;;;10532127;28;20230;-77
2023/05/20 10:49:58;;;;;;;6.37;5.97;;;22.60;93.60;;;;;;10568106;28;20195;-77
2023/05/20 10:55:02;;;;;;;5.53;5.13;;;22.40;92.10;;;;;;10528507;28;20203;-80
2023/05/20 11:00:09;;;;;;;6.80;5.60;;;22.20;93.10;;;;;;10553967;28;20237;-79
2023/05/20 11:05:13;;;;;;;6.30;5.77;;;21.90;92.80;;;;;;10553043;28;20220;-79
2023/05/20 11:10:15;;;;;;;6.13;5.53;;;21.70;91.30;;;;;;10552923;28;20226;-80
2023/05/20 11:15:19;;;;;;;6.40;5.90;;;21.40;93.00;;;;;;10560397;28;20231;-83
2023/05/20 11:20:21;;;;;;;6.07;5.67;;;21.30;92.40;;;;;;10577179;28;20220;-81
2023/05/20 11:25:23;;;;;;;6.50;5.90;;;21.10;94.30;;;;;;10556739;28;20228;-79
2023/05/20 11:30:27;;;;;;;6.43;5.90;;;21.00;93.80;;;;;;10570337;28;20204;-79
2023/05/20 11:35:31;;;;;;;5.20;4.80;;;21.10;91.80;;;;;;10569931;28;20306;-79
2023/05/20 11:40:34;;;;;;;10.37;5.30;;;21.20;92.90;;;;;;10569136;28;20196;-80
2023/05/20 11:45:41;;;;;;;4.87;4.47;;;21.30;93.40;;;;;;10570965;28;20864;-81
2023/05/20 11:50:47;;;;;;;6.50;6.00;;;21.30;90.90;;;;;;10565034;28;20210;-79
2023/05/20 11:55:53;;;;;;;6.30;5.80;;;21.30;91.50;;;;;;10527382;28;20310;-80
2023/05/20 12:00:57;;;;;;;5.67;5.27;;;21.20;92.70;;;;;;10552208;28;20204;-79
2023/05/20 12:06:01;;;;;;;5.80;5.33;;;21.20;92.00;;;;;;10545232;28;20320;-79
2023/05/20 12:11:03;;;;;;;5.50;5.10;;;21.30;92.30;;;;;;10565722;28;20579;-79
2023/05/20 12:16:07;;;;;;;6.33;5.80;;;21.40;93.10;;;;;;10566509;28;20223;-79
2023/05/20 12:21:09;;;;;;;6.40;5.90;;;21.70;91.80;;;;;;10532194;28;20204;-81
2023/05/20 12:26:11;;;;;;;6.97;6.33;;;21.90;91.90;;;;;;10568640;28;20224;-80
2023/05/20 12:31:15;;;;;;;5.90;5.40;;;22.00;92.30;;;;;;10548712;28;21173;-80
2023/05/20 12:36:18;;;;;;;5.70;5.30;;;21.90;91.90;;;;;;10566833;28;20706;-80
2023/05/20 12:41:20;;;;;;;6.33;5.90;;;21.80;91.60;;;;;;10572008;28;20214;-79
2023/05/20 12:46:24;;;;;;;5.77;5.37;;;21.80;91.50;;;;;;10534436;28;20717;-78
2023/05/20 12:51:26;;;;;;;7.10;5.97;;;21.70;93.20;;;;;;10566389;28;20230;-80
2023/05/20 12:56:30;;;;;;;5.90;5.50;;;21.80;92.20;;;;;;10565694;28;20227;-81
2023/05/20 13:01:33;;;;;;;5.93;5.43;;;21.90;91.50;;;;;;10545302;28;20298;-80
2023/05/20 13:06:35;;;;;;;5.13;4.77;;;21.90;91.70;;;;;;10566207;28;20228;-79
2023/05/20 13:11:38;;;;;;;5.50;5.10;;;21.90;92.10;;;;;;10564687;28;20203;-80
2023/05/20 13:16:41;;;;;;;6.50;4.57;;;22.00;91.40;;;;;;10565058;28;20579;-81
2023/05/20 13:21:43;;;;;;;5.50;5.10;;;22.00;88.60;;;;;;10548974;28;20200;-81
2023/05/20 13:26:45;;;;;;;4.90;4.60;;;21.80;91.40;;;;;;10596411;28;21007;-80
2023/05/20 13:31:49;;;;;;;4.77;4.47;;;21.80;91.70;;;;;;10568549;28;20199;-80
2023/05/20 13:36:51;;;;;;;4.20;4.00;;;21.90;91.90;;;;;;10567749;28;20216;-80
2023/05/20 13:41:53;;;;;;;5.20;4.80;;;22.00;90.50;;;;;;10571584;28;20277;-82
2023/05/20 13:46:57;;;;;;;5.23;4.83;;;22.10;90.70;;;;;;10535209;28;1094607;-83
2023/05/20 13:51:59;;;;;;;5.30;4.90;;;22.20;88.10;;;;;;10553091;28;20238;-81
2023/05/20 13:57:01;;;;;;;4.70;4.40;;;22.40;86.30;;;;;;10570749;28;20250;-82
2023/05/20 14:02:05;;;;;;;5.50;5.10;;;22.40;91.20;;;;;;10572382;28;20234;-80
2023/05/20 14:07:08;;;;;;;5.40;4.67;;;22.30;88.10;;;;;;10549081;28;20223;-81
2023/05/20 14:12:10;;;;;;;4.97;4.67;;;22.30;85.90;;;;;;10574061;28;20963;-83
2023/05/20 14:17:13;;;;;;;5.30;4.80;;;22.30;91.20;;;;;;10564553;28;20223;-81
2023/05/20 14:22:15;;;;;;;4.77;4.40;;;22.10;90.60;;;;;;10545759;28;20198;-80
2023/05/20 14:27:18;;;;;;;4.70;4.40;;;22.00;90.00;;;;;;10566976;28;20223;-79
2023/05/20 14:32:21;;;;;;;5.30;4.90;;;21.90;89.30;;;;;;10548038;28;20200;-80
2023/05/20 14:37:23;;;;;;;5.57;5.17;;;21.80;90.00;;;;;;10564154;28;20233;-79
2023/05/20 14:42:25;;;;;;;5.40;4.90;;;21.70;91.60;;;;;;10547209;28;20312;-79
2023/05/20 14:47:28;;;;;;;4.30;3.90;;;21.50;92.30;;;;;;10565442;28;20607;-80
2023/05/20 14:52:30;;;;;;;4.60;4.30;;;21.30;91.70;;;;;;10566046;28;20286;-80
2023/05/20 14:57:33;;;;;;;5.33;4.93;;;21.20;91.60;;;;;;10547488;28;20224;-80
2023/05/20 15:02:36;;;;;;;4.73;4.43;;;21.10;91.70;;;;;;10566386;28;20210;-81
2023/05/20 15:07:38;;;;;;;5.60;4.87;;;21.00;91.30;;;;;;10544421;28;20218;-81
2023/05/20 15:12:40;;;;;;;4.50;4.20;;;21.00;92.90;;;;;;10563441;28;20204;-80
2023/05/20 15:17:44;;;;;;;5.10;4.60;;;21.10;91.80;;;;;;10562598;28;20223;-80
2023/05/20 15:22:47;;;;;;;4.43;4.10;;;21.10;91.80;;;;;;10546483;28;20639;-81
2023/05/20 15:27:49;;;;;;;4.87;4.47;;;21.00;92.00;;;;;;10570145;28;20299;-81
2023/05/20 15:32:52;;;;;;;5.50;5.10;;;21.00;92.50;;;;;;10543149;28;20691;-79
2023/05/20 15:37:54;;;;;;;4.90;4.60;;;21.00;93.30;;;;;;10586939;28;20224;-82
2023/05/20 15:42:57;;;;;;;5.57;5.17;;;20.80;93.40;;;;;;10559159;28;20211;-80
2023/05/20 15:48:00;;;;;;;6.17;5.67;;;20.70;93.50;;;;;;10536596;22;20564;-83
2023/05/20 15:53:05;;;;;;;5.77;5.37;;;20.60;91.90;;;;;;10465392;28;20205;-83
2023/05/20 15:58:07;;;;;;;5.50;5.10;;;20.60;93.30;;;;;;10498005;28;20228;-83
2023/05/20 16:03:11;;;;;;;6.10;5.60;;;20.60;94.20;;;;;;10456135;28;20209;-84
2023/05/20 16:08:13;;;;;;;5.03;4.70;;;20.50;94.50;;;;;;10483505;28;20228;-83
2023/05/20 16:13:15;;;;;;;6.47;5.90;;;20.40;92.30;;;;;;10489382;28;20570;-83
2023/05/20 16:18:18;;;;;;;5.10;4.70;;;20.40;92.80;;;;;;10488501;28;20257;-83
2023/05/20 16:23:21;;;;;;;5.77;5.33;;;20.40;92.40;;;;;;10481306;28;20406;-83
2023/05/20 16:28:24;;;;;;;5.90;5.50;;;20.40;92.90;;;;;;10469935;28;20227;-84
2023/05/20 16:33:27;;;;;;;5.00;4.70;;;20.50;92.10;;;;;;10480208;28;20197;-83
2023/05/20 16:38:31;;;;;;;4.40;4.10;;;20.50;92.10;;;;;;10462350;28;20256;-84
2023/05/20 16:43:33;;;;;;;6.10;5.60;;;20.50;92.70;;;;;;10491195;28;20231;-83
2023/05/20 16:48:36;;;;;;;5.20;4.90;;;20.50;93.00;;;;;;10470089;28;20225;-83
2023/05/20 16:53:38;;;;;;;6.23;5.63;;;20.50;92.50;;;;;;10467600;28;20722;-83
2023/05/20 16:58:40;;;;;;;5.47;5.13;;;20.50;93.20;;;;;;10478700;28;20228;-83
2023/05/20 17:03:44;;;;;;;5.77;5.37;;;20.50;93.20;;;;;;10477596;28;20212;-83
2023/05/20 17:08:46;;;;;;;5.33;4.83;;;20.50;93.00;;;;;;10461651;28;20814;-84
2023/05/20 17:13:48;;;;;;;6.30;5.73;;;20.60;93.40;;;;;;10460583;28;20209;-83
2023/05/20 17:18:52;;;;;;;7.43;6.70;;;20.60;93.50;;;;;;10497982;28;20314;-83
2023/05/20 17:23:54;;;;;;;7.87;7.27;;;20.60;93.80;;;;;;10478764;28;20205;-83
2023/05/20 17:28:56;;;;;;;8.10;7.37;;;20.60;94.20;;;;;;10492012;28;20238;-83
2023/05/20 17:34:00;;;;;;;8.43;7.83;;;20.60;94.50;;;;;;10478295;28;20230;-83
2023/05/20 17:39:03;;;;;;;9.93;9.03;;;20.50;95.10;;;;;;10477546;28;20228;-83
2023/05/20 17:44:06;;;;;;;9.40;8.70;;;20.50;95.10;;;;;;10483416;28;20205;-83
2023/05/20 17:49:10;;;;;;;10.07;9.27;;;20.40;95.10;;;;;;10477480;28;20313;-83
2023/05/20 17:54:12;;;;;;;10.37;9.47;;;20.40;95.30;;;;;;10466144;28;20963;-83
2023/05/20 17:59:14;;;;;;;10.13;9.23;;;20.30;95.20;;;;;;10500479;28;20274;-83
2023/05/20 18:04:20;;;;;;;10.60;9.70;;;20.30;96.20;;;;;;10504568;28;20216;-83
2023/05/20 18:09:22;;;;;;;8.80;8.10;;;20.20;96.50;;;;;;10470132;28;20229;-83
2023/05/20 18:14:25;;;;;;;10.13;9.33;;;20.00;96.50;;;;;;10507466;28;20202;-83
2023/05/20 18:19:28;;;;;;;10.73;9.33;;;19.90;96.90;;;;;;10490748;28;20650;-82
2023/05/20 18:24:30;;;;;;;9.90;8.87;;;19.80;97.20;;;;;;10476166;28;20259;-82
2023/05/20 18:29:33;;;;;;;10.80;9.90;;;19.70;97.70;;;;;;10478573;28;20216;-83
2023/05/20 18:34:36;;;;;;;10.93;10.10;;;19.60;98.10;;;;;;10503499;28;20206;-83
2023/05/20 18:39:38;;;;;;;11.30;10.37;;;19.60;98.30;;;;;;10504134;28;20251;-82
2023/05/20 18:44:40;;;;;;;11.10;10.20;;;19.50;98.40;;;;;;10493301;28;20205;-82
2023/05/20 18:49:44;;;;;;;10.33;9.53;;;19.40;98.10;;;;;;10485051;28;20320;-83
2023/05/20 18:54:46;;;;;;;12.50;11.33;;;19.40;98.40;;;;;;10478239;28;20197;-83
2023/05/20 18:59:48;;;;;;;12.30;11.20;;;19.40;98.70;;;;;;10483161;28;20225;-83
2023/05/20 19:04:51;;;;;;;11.97;10.77;;;19.30;98.80;;;;;;10485258;28;20209;-83
2023/05/20 19:09:54;;;;;;;12.97;11.87;;;19.30;99.10;;;;;;10468419;28;20719;-83
2023/05/20 19:14:56;;;;;;;11.80;10.80;;;19.20;99.20;;;;;;10501296;28;20197;-83
2023/05/20 19:19:59;;;;;;;12.27;11.07;;;19.20;99.30;;;;;;10468688;28;20223;-83
2023/05/20 19:25:01;;;;;;;12.23;11.23;;;19.20;99.30;;;;;;10506048;28;20201;-82
2023/05/20 19:30:04;;;;;;;12.17;11.07;;;19.20;99.40;;;;;;10478455;28;20213;-82
2023/05/20 19:35:08;;;;;;;12.93;11.63;;;19.20;99.30;;;;;;10481607;28;20201;-83
2023/05/20 19:40:12;;;;;;;12.70;11.70;;;19.20;99.30;;;;;;10460953;28;20287;-83
2023/05/20 19:45:14;;;;;;;13.60;12.40;;;19.20;99.50;;;;;;10462704;28;20258;-82
2023/05/20 19:50:17;;;;;;;13.90;12.67;;;19.20;99.40;;;;;;10449706;28;20215;-83
2023/05/20 19:55:19;;;;;;;14.30;13.00;;;19.20;99.40;;;;;;10465747;28;20568;-82
2023/05/20 20:00:22;;;;;;;15.20;13.90;;;19.20;99.40;;;;;;10467524;28;20960;-82
2023/05/20 20:05:25;;;;;;;16.07;14.53;;;19.20;99.70;;;;;;10509471;28;20571;-82
2023/05/20 20:10:29;;;;;;;16.53;14.93;;;19.10;99.90;;;;;;10476165;28;20250;-83
2023/05/20 20:15:31;;;;;;;16.87;15.27;;;19.00;99.90;;;;;;10490953;28;20245;-83
2023/05/20 20:20:38;;;;;;;15.70;14.30;;;18.90;99.90;;;;;;10461865;28;20228;-83
2023/05/20 20:25:41;;;;;;;16.30;14.93;;;18.80;99.90;;;;;;10478277;28;20237;-83
2023/05/20 20:30:43;;;;;;;16.93;15.43;;;18.70;99.90;;;;;;10494885;28;20198;-83
2023/05/20 20:35:47;;;;;;;15.60;14.27;;;18.60;99.90;;;;;;10486567;28;20224;-84
2023/05/20 20:40:52;;;;;;;16.17;14.83;;;18.50;99.90;;;;;;10486673;28;20248;-83
2023/05/20 20:45:55;;;;;;;16.17;14.67;;;18.50;99.90;;;;;;10481080;28;20244;-83
2023/05/20 20:51:00;;;;;;;15.00;13.70;;;18.40;99.90;;;;;;10479942;28;20194;-84
2023/05/20 20:56:02;;;;;;;15.30;13.83;;;18.30;99.90;;;;;;10473175;28;20217;-84
2023/05/20 21:01:05;;;;;;;15.47;14.10;;;18.20;99.90;;;;;;10470413;28;20213;-83
2023/05/20 21:06:11;;;;;;;14.87;13.57;;;18.20;99.90;;;;;;10499525;28;20209;-83
2023/05/20 21:11:13;;;;;;;16.40;15.00;;;18.20;99.90;;;;;;10484657;28;20193;-83
2023/05/20 21:16:15;;;;;;;16.10;14.70;;;18.10;99.90;;;;;;10443577;28;20228;-83
2023/05/20 21:21:20;;;;;;;16.50;15.00;;;18.10;99.90;;;;;;10501522;28;20216;-83
2023/05/20 21:26:23;;;;;;;16.77;14.73;;;18.10;99.90;;;;;;10453002;28;20662;-82
2023/05/20 21:31:25;;;;;;;40.97;35.50;;;18.00;99.90;;;;;;10454217;28;20230;-83
2023/05/20 21:36:29;;;;;;;36.47;32.37;;;18.00;99.90;;;;;;10465581;28;20232;-83
2023/05/20 21:41:31;;;;;;;34.47;30.90;;;18.00;99.90;;;;;;10470254;28;20222;-83
2023/05/20 21:46:33;;;;;;;24.90;22.50;;;17.90;99.90;;;;;;10492292;22;20223;-87
2023/05/20 21:51:36;;;;;;;20.07;18.27;;;17.80;99.90;;;;;;10563888;28;20188;-86
2023/05/20 21:56:39;;;;;;;16.70;15.10;;;17.80;99.90;;;;;;10556878;27;20230;-86
2023/05/20 22:01:41;;;;;;;15.70;14.10;;;17.80;99.90;;;;;;10641569;27;20225;-85
2023/05/20 22:06:44;;;;;;;14.33;13.23;;;17.80;99.90;;;;;;10648025;27;20568;-86
2023/05/20 22:11:47;;;;;;;16.53;14.83;;;17.70;99.90;;;;;;10634836;27;20661;-85
2023/05/20 22:16:49;;;;;;;15.70;14.20;;;17.70;99.90;;;;;;10628492;27;20234;-85
2023/05/20 22:21:52;;;;;;;15.40;14.10;;;17.70;99.90;;;;;;10623771;27;20234;-86
2023/05/20 22:26:54;;;;;;;15.83;14.53;;;17.60;99.90;;;;;;10614451;27;20211;-86
2023/05/20 22:31:56;;;;;;;16.00;14.70;;;17.60;99.90;;;;;;10625513;27;20230;-86
2023/05/20 22:37:00;;;;;;;16.57;15.17;;;17.60;99.90;;;;;;10622352;27;20203;-87
2023/05/20 22:42:03;;;;;;;17.10;15.50;;;17.60;99.90;;;;;;10621429;27;20206;-86
2023/05/20 22:47:05;;;;;;;15.90;14.40;;;17.50;99.90;;;;;;10620474;27;20215;-86
2023/05/20 22:52:08;;;;;;;15.67;14.37;;;17.50;99.90;;;;;;10610439;27;20220;-87
2023/05/20 22:57:11;;;;;;;17.03;15.47;;;17.50;99.90;;;;;;10618411;27;20228;-85
2023/05/20 23:02:13;;;;;;;16.43;15.00;;;17.50;99.90;;;;;;10617879;27;20571;-86
2023/05/20 23:07:18;;;;;;;15.33;14.00;;;17.40;99.90;;;;;;10606433;28;20240;-85
2023/05/20 23:12:20;;;;;;;16.73;15.23;;;17.40;99.90;;;;;;10628647;28;20203;-86
2023/05/20 23:17:22;;;;;;;19.40;15.83;;;17.40;99.90;;;;;;10607958;27;20226;-85
2023/05/20 23:22:25;;;;;;;16.40;15.00;;;17.30;99.90;;;;;;10629490;27;20215;-85
2023/05/20 23:27:27;;;;;;;16.23;14.83;;;17.30;99.90;;;;;;10614755;27;20218;-85
2023/05/20 23:32:30;;;;;;;16.80;15.40;;;17.30;99.90;;;;;;10576613;27;20600;-85
2023/05/20 23:37:34;;;;;;;16.60;15.20;;;17.30;99.90;;;;;;10635414;28;20238;-86
2023/05/20 23:42:36;;;;;;;17.90;16.07;;;17.30;99.90;;;;;;10635006;27;20215;-85
2023/05/20 23:47:38;;;;;;;16.00;14.53;;;17.20;99.90;;;;;;10623143;27;20277;-85
2023/05/20 23:52:41;;;;;;;19.23;17.43;;;17.20;99.90;;;;;;10621357;27;20252;-85
2023/05/20 23:57:44;;;;;;;16.50;15.10;;;17.20;99.90;;;;;;10617735;27;20219;-85
